createdAt,value
2019-05-07T00:03:42.123Z,44.63
2019-05-07T00:08:45.923Z,43.50
2019-05-07T00:13:49.545Z,43.63
2019-05-07T00:18:53.135Z,43.23
2019-05-07T00:23:56.857Z,44.10
2019-05-07T00:29:02.246Z,44.57
2019-05-07T00:34:07.175Z,44.53
2019-05-07T00:39:15.060Z,43.53
2019-05-07T00:44:19.336Z,44.33
2019-05-07T00:49:24.520Z,44.10
2019-05-07T00:54:28.229Z,42.87
2019-05-07T00:59:32.306Z,42.07
2019-05-07T01:04:36.066Z,41.10
2019-05-07T01:09:39.656Z,41.10
2019-05-07T01:14:43.231Z,41.10
2019-05-07T01:19:47.003Z,41.83
2019-05-07T01:24:52.457Z,41.43
2019-05-07T01:29:56.191Z,42.50
2019-05-07T01:35:07.408Z,42.67
2019-05-07T01:40:12.213Z,40.78
2019-05-07T01:45:16.455Z,40.63
2019-05-07T01:50:22.189Z,40.52
2019-05-07T01:55:25.458Z,40.37
2019-05-07T02:00:29.092Z,39.80
2019-05-07T02:05:42.287Z,40.07
2019-05-07T02:10:47.214Z,40.57
2019-05-07T02:16:00.278Z,40.80
2019-05-07T02:20:56.310Z,39.90
2019-05-07T02:26:01.950Z,39.87
2019-05-07T02:31:05.335Z,40.12
2019-05-07T02:36:09.040Z,39.93
2019-05-07T02:41:17.314Z,39.42
2019-05-07T02:46:30.973Z,39.60
2019-05-07T02:51:33.413Z,38.93
2019-05-07T02:56:36.899Z,39.30
2019-05-07T03:01:43.241Z,38.53
2019-05-07T03:06:45.941Z,37.87
2019-05-07T03:11:52.736Z,38.60
2019-05-07T03:16:55.152Z,38.97
2019-05-07T03:21:58.806Z,40.30
2019-05-07T03:27:03.383Z,41.20
2019-05-07T03:32:27.314Z,41.43
2019-05-07T03:37:36.141Z,39.47
2019-05-07T03:42:37.918Z,42.88
2019-05-07T03:47:46.249Z,40.83
2019-05-07T03:52:49.844Z,40.93
2019-05-07T03:57:53.480Z,39.30
2019-05-07T04:02:57.151Z,39.90
2019-05-07T04:08:03.299Z,40.17
2019-05-07T04:13:06.212Z,41.73
2019-05-07T04:18:12.859Z,42.93
2019-05-07T04:23:15.208Z,41.93
2019-05-07T04:28:23.711Z,43.70
2019-05-07T04:33:29.116Z,43.40
2019-05-07T04:38:33.372Z,50.03
2019-05-07T04:43:37.132Z,49.48
2019-05-07T04:48:43.702Z,49.57
2019-05-07T04:53:46.085Z,55.30
2019-05-07T04:58:52.823Z,48.57
2019-05-07T05:03:54.881Z,49.50
2019-05-07T05:08:58.555Z,48.83
2019-05-07T05:14:02.930Z,49.03
2019-05-07T05:19:07.404Z,50.67
2019-05-07T05:24:12.781Z,54.33
2019-05-07T05:29:16.640Z,55.20
2019-05-07T05:34:22.192Z,54.15
2019-05-07T05:39:25.523Z,54.18
2019-05-07T05:44:33.556Z,51.73
2019-05-07T05:49:37.227Z,52.83
2019-05-07T05:54:45.543Z,50.23
2019-05-07T05:59:56.434Z,51.35
2019-05-07T06:05:04.768Z,50.95
2019-05-07T06:10:22.305Z,49.35
2019-05-07T06:15:29.679Z,48.43
2019-05-07T06:20:35.073Z,49.08
2019-05-07T06:25:39.346Z,46.63
2019-05-07T06:30:43.723Z,46.62
2019-05-07T06:35:47.562Z,46.63
2019-05-07T06:41:02.651Z,47.17
2019-05-07T06:46:07.127Z,47.53
2019-05-07T06:51:12.591Z,46.97
2019-05-07T06:56:16.135Z,48.97
2019-05-07T07:01:27.429Z,48.30
2019-05-07T07:06:33.071Z,48.50
2019-05-07T07:11:38.378Z,48.67
2019-05-07T07:16:42.403Z,48.63
2019-05-07T07:21:45.977Z,49.47
2019-05-07T07:26:49.656Z,49.13
2019-05-07T07:31:55.051Z,48.63
2019-05-07T07:37:06.099Z,50.33
2019-05-07T07:42:09.494Z,50.48
2019-05-07T07:47:13.252Z,49.33
2019-05-07T07:52:16.865Z,48.80
2019-05-07T07:57:37.440Z,48.30
2019-05-07T08:02:42.830Z,47.90
2019-05-07T08:07:46.948Z,48.10
2019-05-07T08:12:52.577Z,48.53
2019-05-07T08:17:56.151Z,52.13
2019-05-07T08:22:59.940Z,48.10
2019-05-07T08:28:03.581Z,48.47
2019-05-07T08:33:09.857Z,48.47
2019-05-07T08:38:13.687Z,47.80
2019-05-07T08:43:17.340Z,47.70
2019-05-07T08:48:28.523Z,46.90
2019-05-07T08:53:32.801Z,47.40
2019-05-07T08:58:36.889Z,47.67
2019-05-07T09:03:43.461Z,48.03
2019-05-07T09:08:47.126Z,48.48
2019-05-07T09:13:52.450Z,48.83
2019-05-07T09:18:56.265Z,47.67
2019-05-07T09:24:00.105Z,48.47
2019-05-07T09:29:14.632Z,48.20
2019-05-07T09:34:22.165Z,48.37
2019-05-07T09:44:28.300Z,48.30
2019-05-07T09:49:32.717Z,48.47
2019-05-07T09:54:37.344Z,49.17
2019-05-07T09:59:42.610Z,48.43
2019-05-07T10:04:46.335Z,47.80
2019-05-07T10:09:52.066Z,48.73
2019-05-07T10:14:55.512Z,48.90
2019-05-07T10:19:59.502Z,49.47
2019-05-07T10:25:03.598Z,48.77
2019-05-07T10:30:08.529Z,49.25
2019-05-07T10:35:13.025Z,49.90
2019-05-07T10:40:17.911Z,50.00
2019-05-07T10:45:23.260Z,49.80
2019-05-07T10:50:38.794Z,48.52
2019-05-07T10:55:36.505Z,49.53
2019-05-07T11:00:42.102Z,49.50
2019-05-07T11:05:45.873Z,50.57
2019-05-07T11:10:52.067Z,49.85
2019-05-07T11:16:11.608Z,48.10
2019-05-07T11:21:14.813Z,49.00
2019-05-07T11:26:18.557Z,48.33
2019-05-07T11:31:22.400Z,49.73
2019-05-07T11:36:26.127Z,48.00
2019-05-07T11:41:37.375Z,47.77
2019-05-07T11:46:44.426Z,48.67
2019-05-07T11:51:58.616Z,47.33
2019-05-07T11:57:02.636Z,48.70
2019-05-07T12:02:06.738Z,49.20
2019-05-07T12:07:11.927Z,48.70
2019-05-07T12:12:15.862Z,48.77
2019-05-07T12:17:19.599Z,49.47
2019-05-07T12:22:30.876Z,49.87
2019-05-07T12:27:34.720Z,49.67
2019-05-07T12:32:56.355Z,49.27
2019-05-07T12:38:02.003Z,48.33
2019-05-07T12:43:05.593Z,47.93
2019-05-07T12:48:11.569Z,48.40
2019-05-07T12:53:32.461Z,48.67
2019-05-07T12:58:36.195Z,47.53
2019-05-07T13:03:42.778Z,49.70
2019-05-07T13:08:46.683Z,48.20
2019-05-07T13:13:50.360Z,48.10
2019-05-07T13:18:54.105Z,48.03
2019-05-07T13:23:57.795Z,49.87
2019-05-07T13:29:02.486Z,49.60
2019-05-07T13:34:08.157Z,50.05
2019-05-07T13:39:25.585Z,51.40
2019-05-07T13:44:31.935Z,49.48
2019-05-07T13:49:35.734Z,51.47
2019-05-07T13:54:41.811Z,51.77
2019-05-07T13:59:45.256Z,51.23
2019-05-07T14:04:49.065Z,49.23
2019-05-07T14:09:53.285Z,49.57
2019-05-07T14:14:56.946Z,49.33
2019-05-07T14:20:01.828Z,48.90
2019-05-07T14:25:07.167Z,49.00
2019-05-07T14:30:13.004Z,48.43
2019-05-07T14:35:18.541Z,49.47
2019-05-07T14:40:25.167Z,48.68
2019-05-07T14:45:28.456Z,48.93
2019-05-07T14:50:33.035Z,48.55
2019-05-07T14:55:36.918Z,49.23
2019-05-07T15:00:42.636Z,49.10
2019-05-07T15:05:46.722Z,49.03
2019-05-07T15:10:52.518Z,48.23
2019-05-07T15:15:56.463Z,47.90
2019-05-07T15:21:01.868Z,47.93
2019-05-07T15:26:06.195Z,50.37
2019-05-07T15:31:12.235Z,52.33
2019-05-07T15:36:16.133Z,49.13
2019-05-07T15:41:19.962Z,49.70
2019-05-07T15:46:23.737Z,50.20
2019-05-07T15:51:27.211Z,49.67
2019-05-07T15:56:32.377Z,50.50
2019-05-07T16:01:36.314Z,49.27
2019-05-07T16:06:42.272Z,48.70
2019-05-07T16:11:45.207Z,49.33
2019-05-07T16:16:48.794Z,48.70
2019-05-07T16:21:52.549Z,49.47
2019-05-07T16:26:56.612Z,47.47
2019-05-07T16:32:02.271Z,48.70
2019-05-07T16:37:07.613Z,49.10
2019-05-07T16:42:11.275Z,48.50
2019-05-07T16:47:14.884Z,48.13
2019-05-07T16:52:18.519Z,49.20
2019-05-07T16:57:39.179Z,49.70
2019-05-07T17:02:47.360Z,53.27
2019-05-07T17:08:02.422Z,50.27
2019-05-07T17:13:06.305Z,49.93
2019-05-07T17:18:11.755Z,49.93
2019-05-07T17:23:15.264Z,49.90
2019-05-07T17:28:18.942Z,50.27
2019-05-07T17:33:23.126Z,49.50
2019-05-07T17:38:26.971Z,49.20
2019-05-07T17:43:32.536Z,48.17
2019-05-07T17:48:35.976Z,47.90
2019-05-07T17:53:39.640Z,47.37
2019-05-07T17:58:43.546Z,47.77
2019-05-07T18:03:47.216Z,47.90
2019-05-07T18:08:52.015Z,46.93
2019-05-07T18:13:55.719Z,46.97
2019-05-07T18:18:59.476Z,47.80
2019-05-07T18:24:13.381Z,48.87
2019-05-07T18:29:11.941Z,48.17
2019-05-07T18:34:15.944Z,35.45
2019-05-07T18:39:20.432Z,51.87
2019-05-07T18:44:24.466Z,53.80
2019-05-07T18:49:28.130Z,54.37
2019-05-07T18:54:31.750Z,54.23
2019-05-07T18:59:36.869Z,55.80
2019-05-07T19:04:42.256Z,57.83
2019-05-07T19:09:47.825Z,58.07
2019-05-07T19:14:51.760Z,55.33
2019-05-07T19:19:55.431Z,54.70
2019-05-07T19:24:59.176Z,55.87
2019-05-07T19:30:03.211Z,54.70
2019-05-07T19:35:07.231Z,53.23
2019-05-07T19:40:12.563Z,52.25
2019-05-07T19:45:18.978Z,52.33
2019-05-07T19:50:23.357Z,51.93
2019-05-07T19:55:27.176Z,52.10
2019-05-07T20:00:32.741Z,56.08
2019-05-07T20:05:37.443Z,54.77
2019-05-07T20:10:45.687Z,55.53
2019-05-07T20:15:54.152Z,56.27
2019-05-07T20:20:58.512Z,54.24
2019-05-07T20:26:03.092Z,53.47
2019-05-07T20:31:06.795Z,56.13
2019-05-07T20:36:10.635Z,58.23
2019-05-07T20:41:16.586Z,54.00
2019-05-07T20:46:19.758Z,52.93
2019-05-07T20:51:23.431Z,53.83
2019-05-07T20:56:28.651Z,57.80
2019-05-07T21:01:32.915Z,62.60
2019-05-07T21:06:36.966Z,63.80
2019-05-07T21:11:42.865Z,59.63
2019-05-07T21:16:45.756Z,56.47
2019-05-07T21:21:49.576Z,55.10
2019-05-07T21:26:53.323Z,52.73
2019-05-07T21:31:56.922Z,50.23
2019-05-07T21:37:03.052Z,49.57
2019-05-07T21:42:06.012Z,52.53
2019-05-07T21:47:09.619Z,51.10
2019-05-07T21:52:13.222Z,58.03
2019-05-07T21:57:33.480Z,59.20
2019-05-07T22:02:37.252Z,62.17
2019-05-07T22:07:40.823Z,65.07
2019-05-07T22:12:44.563Z,57.83
2019-05-07T22:17:48.158Z,58.23
2019-05-07T22:22:52.183Z,60.33
2019-05-07T22:27:55.898Z,59.33
2019-05-07T22:33:02.448Z,57.13
2019-05-07T22:38:06.183Z,58.15
2019-05-07T22:43:09.840Z,56.20
2019-05-07T22:48:13.444Z,55.53
2019-05-07T22:53:16.996Z,54.93
2019-05-07T22:58:22.418Z,54.77
2019-05-07T23:03:26.051Z,55.43
2019-05-07T23:08:29.668Z,57.57
2019-05-07T23:13:33.232Z,59.17
2019-05-07T23:18:36.871Z,58.83
2019-05-07T23:23:42.222Z,57.73
2019-05-07T23:28:45.739Z,53.50
2019-05-07T23:33:49.690Z,55.67
2019-05-07T23:38:53.283Z,53.20
2019-05-07T23:44:13.961Z,59.60
2019-05-07T23:49:17.627Z,56.77
2019-05-07T23:54:22.927Z,51.90
2019-05-07T23:59:26.502Z,55.30
